createdAt,value
2022-11-21T00:00:08.368Z,31.80
2022-11-21T00:02:34.808Z,30.60
2022-11-21T00:05:01.270Z,32.20
2022-11-21T00:07:27.732Z,30.40
2022-11-21T00:09:54.157Z,33.90
2022-11-21T00:12:20.602Z,33.87
2022-11-21T00:14:47.039Z,32.33
2022-11-21T00:17:13.626Z,30.97
2022-11-21T00:19:40.054Z,33.33
2022-11-21T00:22:06.533Z,31.57
2022-11-21T00:24:32.982Z,30.97
2022-11-21T00:26:59.479Z,29.37
2022-11-21T00:29:25.989Z,30.07
2022-11-21T00:31:52.424Z,26.83
2022-11-21T00:34:18.849Z,26.50
2022-11-21T00:36:45.283Z,26.10
2022-11-21T00:39:11.814Z,25.67
2022-11-21T00:41:38.234Z,26.97
2022-11-21T00:44:04.774Z,25.00
2022-11-21T00:46:31.259Z,27.73
2022-11-21T00:48:57.697Z,27.37
2022-11-21T00:51:24.170Z,25.97
2022-11-21T00:53:50.654Z,26.90
2022-11-21T00:56:17.069Z,28.43
2022-11-21T00:58:43.533Z,26.27
2022-11-21T01:01:10.666Z,25.43
2022-11-21T01:03:37.242Z,25.30
2022-11-21T01:06:04.196Z,23.97
2022-11-21T01:08:30.630Z,24.67
2022-11-21T01:10:57.040Z,23.40
2022-11-21T01:13:23.506Z,23.90
2022-11-21T01:15:49.934Z,25.27
2022-11-21T01:18:16.395Z,26.87
2022-11-21T01:20:42.854Z,27.40
2022-11-21T01:23:09.399Z,28.37
2022-11-21T01:25:36.113Z,28.13
2022-11-21T01:28:02.579Z,32.03
2022-11-21T01:30:29.023Z,32.07
2022-11-21T01:32:55.454Z,31.87
2022-11-21T01:35:21.917Z,34.77
2022-11-21T01:37:48.770Z,37.03
2022-11-21T01:40:15.463Z,36.03
2022-11-21T01:42:55.149Z,35.50
2022-11-21T01:45:40.491Z,35.57
2022-11-21T01:48:06.966Z,35.80
2022-11-21T01:50:33.457Z,36.30
2022-11-21T01:52:59.928Z,34.17
2022-11-21T01:55:26.335Z,35.27
2022-11-21T01:57:52.781Z,34.33
2022-11-21T02:00:22.172Z,34.80
2022-11-21T02:02:49.681Z,33.67
2022-11-21T02:05:17.300Z,31.23
2022-11-21T02:07:44.565Z,33.73
2022-11-21T02:10:11.048Z,32.67
2022-11-21T02:12:53.175Z,32.83
2022-11-21T02:15:19.865Z,32.50
2022-11-21T02:17:46.275Z,34.67
2022-11-21T02:20:13.443Z,32.97
2022-11-21T02:22:39.919Z,34.60
2022-11-21T02:25:17.193Z,36.77
2022-11-21T02:27:43.619Z,34.83
2022-11-21T02:30:10.283Z,34.17
2022-11-21T02:32:37.493Z,34.20
2022-11-21T02:35:04.067Z,35.57
2022-11-21T02:37:30.511Z,33.73
2022-11-21T02:39:57.324Z,34.60
2022-11-21T02:42:24.575Z,36.67
2022-11-21T02:44:56.294Z,36.27
2022-11-21T02:47:23.217Z,35.43
2022-11-21T02:49:52.414Z,36.73
2022-11-21T02:52:18.848Z,37.70
2022-11-21T02:54:45.287Z,36.40
2022-11-21T02:57:11.877Z,39.30
2022-11-21T02:59:38.297Z,37.03
2022-11-21T03:02:04.745Z,35.90
2022-11-21T03:04:31.196Z,37.43
2022-11-21T03:06:57.717Z,35.17
2022-11-21T03:09:24.149Z,35.70
2022-11-21T03:11:50.585Z,36.90
2022-11-21T03:14:16.990Z,35.63
2022-11-21T03:16:43.563Z,37.40
2022-11-21T03:19:10.028Z,37.93
2022-11-21T03:21:36.455Z,37.10
2022-11-21T03:24:03.008Z,35.97
2022-11-21T03:26:29.473Z,39.73
2022-11-21T03:28:55.889Z,39.23
2022-11-21T03:31:22.335Z,40.70
2022-11-21T03:33:48.779Z,38.57
2022-11-21T03:36:15.213Z,38.77
2022-11-21T03:38:41.639Z,38.40
2022-11-21T03:41:28.048Z,39.27
2022-11-21T03:43:54.500Z,38.83
2022-11-21T03:46:20.970Z,39.17
2022-11-21T03:48:47.559Z,40.03
2022-11-21T03:51:14.007Z,38.67
2022-11-21T03:53:40.453Z,36.10
2022-11-21T03:56:06.920Z,34.20
2022-11-21T03:58:33.363Z,34.93
2022-11-21T04:00:59.954Z,33.63
2022-11-21T04:03:26.446Z,34.97
2022-11-21T04:05:52.937Z,34.00
2022-11-21T04:08:19.376Z,32.80
2022-11-21T04:10:49.403Z,35.30
2022-11-21T04:13:16.019Z,34.60
2022-11-21T04:15:42.603Z,37.47
2022-11-21T04:18:09.186Z,35.30
2022-11-21T04:20:35.643Z,32.10
2022-11-21T04:23:02.075Z,33.60
2022-11-21T04:25:28.507Z,27.43
2022-11-21T04:28:01.495Z,27.77
2022-11-21T04:30:28.045Z,27.53
2022-11-21T04:32:54.666Z,25.90
2022-11-21T04:35:21.525Z,28.03
2022-11-21T04:37:48.033Z,25.70
2022-11-21T04:40:14.659Z,26.30
2022-11-21T04:42:41.447Z,26.73
2022-11-21T04:45:08.107Z,27.07
2022-11-21T04:47:37.995Z,26.63
2022-11-21T04:50:04.565Z,27.47
2022-11-21T04:52:31.072Z,29.13
2022-11-21T04:54:57.511Z,31.20
2022-11-21T04:57:24.047Z,29.37
2022-11-21T04:59:50.530Z,29.60
2022-11-21T05:04:43.299Z,26.87
2022-11-21T05:07:09.750Z,27.17
2022-11-21T05:12:20.971Z,26.33
2022-11-21T05:14:47.455Z,24.90
2022-11-21T05:17:13.891Z,25.87
2022-11-21T05:19:40.377Z,29.90
2022-11-21T05:22:06.952Z,28.40
2022-11-21T05:24:33.550Z,27.53
2022-11-21T05:26:59.982Z,25.70
2022-11-21T05:29:28.216Z,26.63
2022-11-21T05:31:54.892Z,26.90
2022-11-21T05:34:21.467Z,26.40
2022-11-21T05:36:47.937Z,26.93
2022-11-21T05:39:16.037Z,30.77
2022-11-21T05:41:42.524Z,33.70
2022-11-21T05:44:08.997Z,35.03
2022-11-21T05:46:35.482Z,36.33
2022-11-21T05:49:01.934Z,37.10
2022-11-21T05:51:28.599Z,38.10
2022-11-21T06:06:29.771Z,40.23
2022-11-21T06:08:56.258Z,39.80
2022-11-21T06:11:22.705Z,40.67
2022-11-21T06:13:49.188Z,37.53
2022-11-21T06:16:16.290Z,40.30
2022-11-21T06:18:43.440Z,42.00
2022-11-21T06:21:13.911Z,43.27
2022-11-21T06:23:40.383Z,44.77
2022-11-21T06:26:07.948Z,49.10
2022-11-21T06:28:35.406Z,46.57
2022-11-21T06:31:05.422Z,45.63
2022-11-21T06:33:32.341Z,46.43
2022-11-21T06:36:01.539Z,44.77
2022-11-21T06:38:28.037Z,43.03
2022-11-21T06:40:55.041Z,46.40
2022-11-21T06:43:21.450Z,43.73
2022-11-21T06:45:47.913Z,45.17
2022-11-21T06:48:14.371Z,43.17
2022-11-21T06:50:40.908Z,42.20
2022-11-21T06:53:07.614Z,42.27
2022-11-21T06:55:34.090Z,41.93
2022-11-21T06:58:00.499Z,42.77
2022-11-21T07:00:28.199Z,42.67
2022-11-21T07:02:58.723Z,40.47
2022-11-21T07:05:28.199Z,39.77
2022-11-21T07:07:58.426Z,38.30
2022-11-21T07:10:24.884Z,38.30
2022-11-21T07:13:10.038Z,41.83
2022-11-21T07:15:36.506Z,39.30
2022-11-21T07:18:02.945Z,40.20
2022-11-21T07:20:29.381Z,41.23
2022-11-21T07:22:55.914Z,39.47
2022-11-21T07:25:22.726Z,38.83
2022-11-21T07:27:49.167Z,40.87
2022-11-21T07:30:15.746Z,43.43
2022-11-21T07:32:42.247Z,40.33
2022-11-21T07:35:08.946Z,41.43
2022-11-21T07:37:39.759Z,39.43
2022-11-21T07:40:06.572Z,41.50
2022-11-21T07:42:33.300Z,38.13
2022-11-21T07:44:59.868Z,39.67
2022-11-21T07:47:26.387Z,39.73
2022-11-21T07:49:52.794Z,39.17
2022-11-21T07:52:19.231Z,37.90
2022-11-21T07:54:45.715Z,39.13
2022-11-21T07:57:12.182Z,41.10
2022-11-21T07:59:38.679Z,39.13
2022-11-21T08:02:05.168Z,41.17
2022-11-21T08:04:31.711Z,38.80
2022-11-21T08:06:58.250Z,37.47
2022-11-21T08:09:27.887Z,39.97
2022-11-21T08:11:54.541Z,39.03
2022-11-21T08:14:20.956Z,40.23
2022-11-21T08:16:47.434Z,36.77
2022-11-21T08:19:14.077Z,36.83
2022-11-21T08:21:40.557Z,35.83
2022-11-21T08:24:11.056Z,36.57
2022-11-21T08:26:37.539Z,37.77
2022-11-21T08:29:03.982Z,36.83
2022-11-21T08:31:30.440Z,37.33
2022-11-21T08:33:57.245Z,35.17
2022-11-21T08:36:23.952Z,36.43
2022-11-21T08:38:50.483Z,36.20
2022-11-21T08:41:35.673Z,37.50
2022-11-21T08:44:02.695Z,37.83
2022-11-21T08:46:30.248Z,39.30
2022-11-21T08:48:56.818Z,39.07
2022-11-21T08:51:23.263Z,38.67
2022-11-21T08:53:49.843Z,40.50
2022-11-21T08:56:16.413Z,37.07
2022-11-21T08:58:42.877Z,40.47
2022-11-21T09:01:09.304Z,41.47
2022-11-21T09:03:35.907Z,40.93
2022-11-21T09:06:02.426Z,42.60
2022-11-21T09:08:29.191Z,41.63
2022-11-21T09:10:55.671Z,41.47
2022-11-21T09:13:22.245Z,44.23
2022-11-21T09:16:07.384Z,45.00
2022-11-21T09:18:33.996Z,47.50
2022-11-21T09:21:00.524Z,46.47
2022-11-21T09:23:26.967Z,44.20
2022-11-21T09:25:53.461Z,45.10
2022-11-21T09:28:19.922Z,44.83
2022-11-21T09:30:46.454Z,40.87
2022-11-21T09:33:14.386Z,40.67
2022-11-21T09:35:40.973Z,40.80
2022-11-21T09:38:07.538Z,39.87
2022-11-21T09:40:34.223Z,41.57
2022-11-21T09:43:16.067Z,42.87
2022-11-21T09:45:49.002Z,39.00
2022-11-21T09:48:44.904Z,41.00
2022-11-21T09:51:12.168Z,44.30
2022-11-21T09:53:41.680Z,45.70
2022-11-21T09:56:10.994Z,45.03
2022-11-21T09:58:51.668Z,45.40
2022-11-21T10:01:18.199Z,44.40
2022-11-21T10:03:53.940Z,45.00
2022-11-21T10:06:30.104Z,47.83
2022-11-21T10:09:03.099Z,47.33
2022-11-21T10:11:58.805Z,42.33
2022-11-21T10:14:33.546Z,40.70
2022-11-21T10:16:59.946Z,38.33
2022-11-21T10:19:26.411Z,37.43
2022-11-21T10:22:18.565Z,34.83
2022-11-21T10:24:45.285Z,35.20
2022-11-21T10:27:20.435Z,32.43
2022-11-21T10:29:49.199Z,32.37
2022-11-21T10:32:30.219Z,31.97
2022-11-21T10:34:58.400Z,30.80
2022-11-21T10:37:24.871Z,34.00
2022-11-21T10:39:51.349Z,34.23
2022-11-21T10:42:36.620Z,31.77
2022-11-21T10:45:19.422Z,35.07
2022-11-21T10:47:46.937Z,32.73
2022-11-21T10:50:22.480Z,31.97
2022-11-21T10:52:49.547Z,33.83
2022-11-21T10:55:16.294Z,31.47
2022-11-21T10:57:46.719Z,32.43
2022-11-21T11:00:13.394Z,34.17
2022-11-21T11:02:40.424Z,34.33
2022-11-21T11:05:16.092Z,33.50
2022-11-21T11:07:42.695Z,31.47
2022-11-21T11:10:28.563Z,33.13
2022-11-21T11:13:44.067Z,33.77
2022-11-21T11:16:12.437Z,32.67
2022-11-21T11:18:47.204Z,31.27
2022-11-21T11:21:13.757Z,33.40
2022-11-21T11:23:40.219Z,31.63
2022-11-21T11:26:18.085Z,34.70
2022-11-21T11:28:44.517Z,35.73
2022-11-21T11:31:11.045Z,36.80
2022-11-21T11:33:38.224Z,38.17
2022-11-21T11:36:14.360Z,38.23
2022-11-21T11:38:45.519Z,37.17
2022-11-21T11:41:14.287Z,36.53
2022-11-21T11:43:59.462Z,34.80
2022-11-21T11:46:47.658Z,31.67
2022-11-21T11:49:21.066Z,26.93
2022-11-21T11:51:49.191Z,24.10
2022-11-21T11:54:20.075Z,23.90
2022-11-21T11:56:47.512Z,22.53
2022-11-21T11:59:14.075Z,21.40
2022-11-21T12:01:53.024Z,20.13
2022-11-21T12:04:23.838Z,18.67
2022-11-21T12:07:46.671Z,15.17
2022-11-21T12:09:39.788Z,12.67
2022-11-21T12:12:09.576Z,10.73
2022-11-21T12:14:55.731Z,9.57
2022-11-21T12:17:25.465Z,9.77
2022-11-21T12:19:51.914Z,7.43
2022-11-21T12:22:18.337Z,7.77
2022-11-21T12:24:44.847Z,6.97
2022-11-21T12:27:17.945Z,8.00
2022-11-21T12:29:51.657Z,8.27
2022-11-21T12:32:18.037Z,7.13
2022-11-21T12:34:44.463Z,7.37
2022-11-21T12:37:17.071Z,7.23
2022-11-21T12:39:53.527Z,8.07
2022-11-21T12:42:52.071Z,8.17
2022-11-21T12:45:21.831Z,7.63
2022-11-21T12:48:15.911Z,8.23
2022-11-21T12:51:17.648Z,8.83
2022-11-21T12:54:21.545Z,9.33
2022-11-21T12:57:06.797Z,9.40
2022-11-21T12:59:36.973Z,9.37
2022-11-21T13:02:06.451Z,10.20
2022-11-21T13:04:36.966Z,10.33
2022-11-21T13:07:03.478Z,10.60
2022-11-21T13:09:30.730Z,10.10
2022-11-21T13:12:01.422Z,10.23
2022-11-21T13:14:34.360Z,10.03
2022-11-21T13:17:19.506Z,9.60
2022-11-21T13:19:48.946Z,8.80
2022-11-21T13:22:33.904Z,8.20
2022-11-21T13:25:00.936Z,9.10
2022-11-21T13:27:36.505Z,9.10
2022-11-21T13:30:07.689Z,7.40
2022-11-21T13:32:40.381Z,8.80
2022-11-21T13:35:21.932Z,8.50
2022-11-21T13:38:07.463Z,6.90
2022-11-21T13:40:33.923Z,6.30
2022-11-21T13:43:32.151Z,6.73
2022-11-21T13:45:57.481Z,6.87
2022-11-21T13:48:42.493Z,6.47
2022-11-21T13:51:16.691Z,6.20
2022-11-21T13:53:58.565Z,6.23
2022-11-21T13:56:26.120Z,5.90
2022-11-21T13:58:52.639Z,6.83
2022-11-21T14:01:19.168Z,6.90
2022-11-21T14:03:54.514Z,7.47
2022-11-21T14:06:34.827Z,8.70
2022-11-21T14:09:24.693Z,8.40
2022-11-21T14:11:58.722Z,6.73
2022-11-21T14:14:35.177Z,7.43
2022-11-21T14:17:05.288Z,6.90
2022-11-21T14:19:32.475Z,7.87
2022-11-21T14:22:00.031Z,7.97
2022-11-21T14:24:26.506Z,8.47
2022-11-21T14:26:52.996Z,7.47
2022-11-21T14:29:26.829Z,7.57
2022-11-21T14:31:53.555Z,6.87
2022-11-21T14:34:27.072Z,7.73
2022-11-21T14:36:54.239Z,9.17
2022-11-21T14:39:36.520Z,8.03
2022-11-21T14:42:05.710Z,8.63
2022-11-21T14:44:32.626Z,9.03
2022-11-21T14:47:03.975Z,8.97
2022-11-21T14:49:30.486Z,7.83
2022-11-21T14:52:12.267Z,8.23
2022-11-21T14:55:13.510Z,6.87
2022-11-21T14:57:37.001Z,8.13
2022-11-21T15:00:04.775Z,8.70
2022-11-21T15:02:31.728Z,9.23
2022-11-21T15:05:05.460Z,8.77
2022-11-21T15:07:36.285Z,10.70
2022-11-21T15:10:28.804Z,11.83
2022-11-21T15:13:03.388Z,11.67
2022-11-21T15:15:47.447Z,10.97
2022-11-21T15:18:29.895Z,11.00
2022-11-21T15:21:02.957Z,10.03
2022-11-21T15:23:33.280Z,10.93
2022-11-21T15:26:01.443Z,11.10
2022-11-21T15:28:28.564Z,11.60
2022-11-21T15:31:13.697Z,12.63
2022-11-21T15:36:47.052Z,14.10
2022-11-21T15:39:15.728Z,14.70
2022-11-21T15:41:42.225Z,14.73
2022-11-21T15:44:08.719Z,12.50
2022-11-21T15:46:42.202Z,13.27
2022-11-21T15:49:32.385Z,14.23
2022-11-21T15:52:07.132Z,13.20
2022-11-21T15:54:35.385Z,13.30
2022-11-21T15:57:01.891Z,13.20
2022-11-21T15:59:28.788Z,12.00
2022-11-21T16:01:55.522Z,12.57
2022-11-21T16:04:25.547Z,12.27
2022-11-21T16:06:53.505Z,12.30
2022-11-21T16:09:19.925Z,12.60
2022-11-21T16:11:47.141Z,13.40
2022-11-21T16:14:14.376Z,12.70
2022-11-21T16:16:43.182Z,14.10
2022-11-21T16:19:10.881Z,14.43
2022-11-21T16:21:37.423Z,15.00
2022-11-21T16:24:04.024Z,15.47
2022-11-21T16:26:30.511Z,18.33
2022-11-21T16:28:57.328Z,17.27
2022-11-21T16:31:27.951Z,15.70
2022-11-21T16:33:54.499Z,16.37
2022-11-21T16:36:23.682Z,15.60
2022-11-21T16:38:50.609Z,16.07
2022-11-21T16:41:18.610Z,16.00
2022-11-21T16:43:52.036Z,16.50
2022-11-21T16:46:19.466Z,16.40
2022-11-21T16:48:46.028Z,16.03
2022-11-21T16:51:13.524Z,15.37
2022-11-21T16:53:40.817Z,17.77
2022-11-21T16:56:08.173Z,19.60
2022-11-21T16:58:36.043Z,21.03
2022-11-21T17:01:12.776Z,20.60
2022-11-21T17:03:39.744Z,20.00
2022-11-21T17:06:06.304Z,20.40
2022-11-21T17:08:33.297Z,22.47
2022-11-21T17:10:59.787Z,21.27
2022-11-21T17:13:26.871Z,20.90
2022-11-21T17:15:53.382Z,20.23
2022-11-21T17:18:19.881Z,20.50
2022-11-21T17:20:46.319Z,19.40
2022-11-21T17:23:12.733Z,17.77
2022-11-21T17:25:39.326Z,17.13
2022-11-21T17:28:05.804Z,17.10
2022-11-21T17:30:34.414Z,18.17
2022-11-21T17:33:02.261Z,17.03
2022-11-21T17:35:28.715Z,17.70
2022-11-21T17:37:55.163Z,18.23
2022-11-21T17:40:21.773Z,19.30
2022-11-21T17:42:48.317Z,19.37
2022-11-21T17:45:14.837Z,19.77
2022-11-21T17:47:44.461Z,19.50
2022-11-21T17:50:11.158Z,20.33
2022-11-21T17:52:38.852Z,20.37
2022-11-21T17:55:05.568Z,22.33
2022-11-21T17:57:32.168Z,21.33
2022-11-21T17:59:58.759Z,20.60
2022-11-21T18:02:26.143Z,22.23
2022-11-21T18:04:52.867Z,20.43
2022-11-21T18:07:19.435Z,20.97
2022-11-21T18:09:46.582Z,22.43
2022-11-21T18:12:13.264Z,22.70
2022-11-21T18:14:39.787Z,21.57
2022-11-21T18:17:06.405Z,24.37
2022-11-21T18:19:32.866Z,24.17
2022-11-21T18:21:59.521Z,24.70
2022-11-21T18:24:27.593Z,21.73
2022-11-21T18:26:54.587Z,22.37
2022-11-21T18:29:38.514Z,22.20
2022-11-21T18:32:06.085Z,22.43
2022-11-21T18:34:33.038Z,22.33
2022-11-21T18:36:59.808Z,23.10
2022-11-21T18:39:27.414Z,22.40
2022-11-21T18:41:54.400Z,22.50
2022-11-21T18:44:22.698Z,21.57
2022-11-21T18:46:49.930Z,22.97
2022-11-21T18:49:16.684Z,21.73
2022-11-21T18:51:43.600Z,23.30
2022-11-21T18:54:11.399Z,23.03
2022-11-21T18:56:38.449Z,24.80
2022-11-21T18:59:08.835Z,23.90
2022-11-21T19:01:37.085Z,25.53
2022-11-21T19:04:04.359Z,26.50
2022-11-21T19:06:31.020Z,24.80
2022-11-21T19:08:58.250Z,29.03
2022-11-21T19:11:25.833Z,31.67
2022-11-21T19:13:53.157Z,35.73
2022-11-21T19:16:20.773Z,43.27
2022-11-21T19:19:05.315Z,43.30
2022-11-21T19:21:38.113Z,43.23
2022-11-21T19:24:06.913Z,42.10
2022-11-21T19:26:33.848Z,45.73
2022-11-21T19:29:00.754Z,40.03
2022-11-21T19:31:27.476Z,41.73
2022-11-21T19:33:54.469Z,41.70
2022-11-21T19:36:22.907Z,40.33
2022-11-21T19:38:51.185Z,38.80
2022-11-21T19:41:20.041Z,39.97
2022-11-21T19:43:47.673Z,41.00
2022-11-21T19:46:18.304Z,43.83
2022-11-21T19:48:51.554Z,40.43
2022-11-21T19:51:18.407Z,43.13
2022-11-21T19:53:45.185Z,43.53
2022-11-21T19:56:11.714Z,43.17
2022-11-21T19:58:38.356Z,45.23
2022-11-21T20:01:05.834Z,44.63
2022-11-21T20:03:32.455Z,45.13
2022-11-21T20:06:05.701Z,44.13
2022-11-21T20:08:32.354Z,44.33
2022-11-21T20:11:06.158Z,45.60
2022-11-21T20:13:32.894Z,44.17
2022-11-21T20:16:00.445Z,45.70
2022-11-21T20:18:28.929Z,45.07
2022-11-21T20:20:55.564Z,44.27
2022-11-21T20:23:22.206Z,44.23
2022-11-21T20:25:52.013Z,47.97
2022-11-21T20:28:19.003Z,47.53
2022-11-21T20:30:45.495Z,48.57
2022-11-21T20:33:12.039Z,45.93
2022-11-21T20:35:39.957Z,44.83
2022-11-21T20:38:06.548Z,43.60
2022-11-21T20:40:33.333Z,41.93
2022-11-21T20:43:00.156Z,41.17
2022-11-21T20:48:18.744Z,41.83
2022-11-21T20:53:59.993Z,40.73
2022-11-21T20:56:27.863Z,38.17
2022-11-21T20:58:54.434Z,40.83
2022-11-21T21:01:21.183Z,41.40
2022-11-21T21:03:48.078Z,42.50
2022-11-21T21:06:14.563Z,38.20
2022-11-21T21:08:41.088Z,40.60
2022-11-21T21:11:20.722Z,39.37
2022-11-21T21:13:54.818Z,37.97
2022-11-21T21:16:22.486Z,40.30
2022-11-21T21:18:52.335Z,37.40
2022-11-21T21:21:19.852Z,37.67
2022-11-21T21:23:47.482Z,36.27
2022-11-21T21:26:23.897Z,36.90
2022-11-21T21:28:50.391Z,36.17
2022-11-21T21:31:17.624Z,37.27
2022-11-21T21:33:44.126Z,40.07
2022-11-21T21:36:11.400Z,42.73
2022-11-21T21:38:37.973Z,42.57
2022-11-21T21:41:04.896Z,43.47
2022-11-21T21:43:31.623Z,43.40
2022-11-21T21:46:27.618Z,42.60
2022-11-21T21:48:57.624Z,37.57
2022-11-21T21:51:24.834Z,36.83
2022-11-21T21:53:51.642Z,35.50
2022-11-21T21:56:18.443Z,40.70
2022-11-21T21:58:45.276Z,41.97
2022-11-21T22:01:12.850Z,46.10
2022-11-21T22:03:39.657Z,47.53
2022-11-21T22:06:07.074Z,46.70
2022-11-21T22:08:33.810Z,46.17
2022-11-21T22:11:00.992Z,46.57
2022-11-21T22:13:27.431Z,47.03
2022-11-21T22:15:57.261Z,52.57
2022-11-21T22:18:23.737Z,48.77
2022-11-21T22:20:50.281Z,48.73
2022-11-21T22:23:16.740Z,50.77
2022-11-21T22:25:43.241Z,49.93
2022-11-21T22:28:10.041Z,50.40
2022-11-21T22:30:36.521Z,49.43
2022-11-21T22:33:02.951Z,52.73
2022-11-21T22:35:31.548Z,51.60
2022-11-21T22:37:58.105Z,48.73
2022-11-21T22:40:24.555Z,54.23
2022-11-21T22:42:51.874Z,56.77
2022-11-21T22:45:18.311Z,58.43
2022-11-21T22:47:47.883Z,66.17
2022-11-21T22:50:15.574Z,69.40
2022-11-21T22:52:42.131Z,61.30
2022-11-21T22:55:08.942Z,60.07
2022-11-21T22:57:35.405Z,64.80
2022-11-21T23:00:02.534Z,64.63
2022-11-21T23:02:28.978Z,58.73
2022-11-21T23:04:55.440Z,56.47
2022-11-21T23:07:22.004Z,57.60
2022-11-21T23:09:48.541Z,55.43
2022-11-21T23:12:15.107Z,58.27
2022-11-21T23:14:41.588Z,57.33
2022-11-21T23:17:08.076Z,58.37
2022-11-21T23:19:34.527Z,63.37
2022-11-21T23:22:00.984Z,63.50
2022-11-21T23:24:27.459Z,64.63
2022-11-21T23:26:54.019Z,63.30
2022-11-21T23:29:20.484Z,66.83
2022-11-21T23:31:46.956Z,66.30
2022-11-21T23:34:13.372Z,62.57
2022-11-21T23:36:39.952Z,55.57
2022-11-21T23:39:06.396Z,53.70
2022-11-21T23:41:32.888Z,54.70
2022-11-21T23:44:02.427Z,52.93
2022-11-21T23:46:29.150Z,57.97
2022-11-21T23:48:55.812Z,51.10
2022-11-21T23:51:22.274Z,57.60
2022-11-21T23:53:49.162Z,54.57
2022-11-21T23:56:15.680Z,53.93
2022-11-21T23:58:42.198Z,59.87
